Time;durP1;ratioP1;P1;durP2;ratioP2;P2;SDS_P1;SDS_P2;PMS_P1;PMS_P2;Temp;Humidity;BMP_temperature;BMP_pressure;BME280_temperature;BME280_humidity;BME280_pressure;Samples;Min_cycle;Max_cycle;Signal;HPM_P1;HPM_P2
2021/07/14 00:01:56;;;;;;;;;;;;;;;30.11;36.67;96867.94;4999700;28;1229;-58
2021/07/14 00:04:21;;;;;;;;;;;;;;;29.70;37.60;96865.19;4997684;28;1559;-58
2021/07/14 00:06:46;;;;;;;;;;;;;;;29.92;37.02;96871.69;5003344;28;1219;-58
2021/07/14 00:09:11;;;;;;;;;;;;;;;29.85;37.20;96882.16;4999526;28;1622;-58
2021/07/14 00:11:42;;;;;;;;;;;;;;;30.10;36.53;96883.06;5001310;28;1216;-58
2021/07/14 00:22:11;;;;;;;;;;;;;;;29.75;37.42;96876.16;5000594;28;1995;-58
2021/07/14 00:24:36;;;;;;;;;;;;;;;29.65;37.43;96878.97;5001362;28;1575;-58
2021/07/14 00:27:05;;;;;;;;;;;;;;;30.17;36.63;96865.41;5002643;28;1321;-58
2021/07/14 00:29:30;;;;;;;;;;;;;;;29.79;37.23;96863.41;5001710;28;1174;-59
2021/07/14 00:31:55;;;;;;;;;;;;;;;29.59;37.80;96855.72;4999615;28;1196;-58
2021/07/14 00:34:20;;;;;;;;;;;;;;;29.77;37.31;96852.91;5000063;28;1910;-57
2021/07/14 00:36:45;;;;;;;;;;;;;;;29.89;36.81;96858.75;5002793;28;1443;-58
2021/07/14 00:39:11;;;;;;;;;;;;;;;29.72;37.39;96850.75;5000954;28;1666;-59
2021/07/14 00:41:36;;;;;;;;;;;;;;;29.51;37.64;96842.41;5004220;28;1306;-58
2021/07/14 00:44:01;;;;;;;;;;;;;;;29.50;37.60;96842.56;4994380;28;1399;-58
2021/07/14 00:46:26;;;;;;;;;;;;;;;29.81;37.22;96838.31;5003365;28;1542;-57
2021/07/14 00:48:52;;;;;;;;;;;;;;;29.92;36.72;96847.78;5006694;28;1339;-57
2021/07/14 00:51:17;;;;;;;;;;;;;;;29.66;37.33;96850.56;5005704;28;1260;-58
2021/07/14 00:53:43;;;;;;;;;;;;;;;29.45;37.69;96848.34;5001852;28;1910;-58
2021/07/14 00:56:08;;;;;;;;;;;;;;;29.81;37.22;96856.06;5004925;28;1554;-56
2021/07/14 00:58:33;;;;;;;;;;;;;;;29.54;37.82;96858.00;4989905;28;1423;-58
2021/07/14 01:00:59;;;;;;;;;;;;;;;29.43;37.93;96853.00;5000747;28;1343;-58
2021/07/14 01:03:25;;;;;;;;;;;;;;;29.77;37.12;96852.06;4986565;28;1620;-57
2021/07/14 01:05:50;;;;;;;;;;;;;;;29.90;36.78;96857.75;4993337;28;1006;-58
2021/07/14 01:08:16;;;;;;;;;;;;;;;29.82;37.22;96866.53;4992204;28;1178;-59
2021/07/14 01:10:42;;;;;;;;;;;;;;;30.09;36.42;96868.06;5005044;28;1642;-58
2021/07/14 01:13:26;;;;;;;;;;;;;;;29.80;37.35;96875.69;5004999;28;1600;-58
2021/07/14 01:15:55;;;;;;;;;;;;;;;29.59;37.64;96869.00;5004633;28;1906;-57
2021/07/14 01:18:39;;;;;;;;;;;;;;;29.69;37.51;96871.50;4992798;28;1315;-59
2021/07/14 01:21:06;;;;;;;;;;;;;;;29.53;37.76;96872.28;5004014;28;1561;-58
2021/07/14 01:23:35;;;;;;;;;;;;;;;29.62;37.49;96873.13;4990128;28;1632;-58
2021/07/14 01:26:12;;;;;;;;;;;;;;;29.60;37.55;96873.31;5001790;28;1618;-58
2021/07/14 01:28:37;;;;;;;;;;;;;;;29.49;37.86;96868.28;5004617;28;1228;-59
2021/07/14 01:31:03;;;;;;;;;;;;;;;29.54;37.51;96878.44;5001956;28;1181;-57
2021/07/14 01:33:30;;;;;;;;;;;;;;;29.65;37.39;96880.81;4992673;28;1575;-58
2021/07/14 01:35:55;;;;;;;;;;;;;;;30.00;36.87;96879.69;5004053;28;2001;-58
2021/07/14 01:38:21;;;;;;;;;;;;;;;29.90;37.13;96881.66;4993478;28;1207;-56
2021/07/14 01:40:46;;;;;;;;;;;;;;;29.78;37.21;96885.63;4994929;28;1653;-57
2021/07/14 01:43:12;;;;;;;;;;;;;;;29.84;37.01;96871.69;4992179;28;1482;-57
2021/07/14 01:45:37;;;;;;;;;;;;;;;30.04;36.75;96875.69;5005570;28;1121;-58
2021/07/14 01:48:02;;;;;;;;;;;;;;;29.93;37.04;96879.50;4993306;28;1556;-59
2021/07/14 01:50:28;;;;;;;;;;;;;;;29.67;37.41;96882.28;4993454;28;1193;-58
2021/07/14 01:52:53;;;;;;;;;;;;;;;29.86;37.17;96886.50;4994361;28;1349;-58
2021/07/14 01:55:18;;;;;;;;;;;;;;;29.84;37.27;96893.78;4991085;28;1983;-58
2021/07/14 01:57:44;;;;;;;;;;;;;;;29.71;37.46;96880.16;5002338;28;1178;-57
2021/07/14 02:00:09;;;;;;;;;;;;;;;29.84;37.27;96874.34;4994103;28;1545;-59
2021/07/14 02:02:37;;;;;;;;;;;;;;;29.42;37.68;96872.56;5003771;28;1646;-57
2021/07/14 02:05:03;;;;;;;;;;;;;;;29.54;37.44;96865.16;5004888;28;1354;-57
2021/07/14 02:07:29;;;;;;;;;;;;;;;29.62;37.53;96858.03;5004426;28;1462;-58
2021/07/14 02:09:54;;;;;;;;;;;;;;;29.61;37.58;96851.06;4975614;28;1598;-58
2021/07/14 02:12:20;;;;;;;;;;;;;;;29.82;37.14;96842.63;5003906;28;1457;-58
2021/07/14 02:14:46;;;;;;;;;;;;;;;29.65;37.29;96833.81;5002633;28;1973;-58
2021/07/14 02:17:15;;;;;;;;;;;;;;;29.65;37.18;96819.69;5003649;28;1312;-57
2021/07/14 02:19:41;;;;;;;;;;;;;;;29.47;37.69;96801.22;4948462;28;1593;-59
2021/07/14 02:22:06;;;;;;;;;;;;;;;30.88;35.09;96807.06;4749511;28;1203;-57
2021/07/14 02:24:33;;;;;;;;;;;;;;;30.50;35.92;96801.53;5002407;28;1774;-56
2021/07/14 02:27:04;;;;;;;;;;;;;;;30.13;36.43;96807.41;5003538;28;1058;-57
2021/07/14 02:29:29;;;;;;;;;;;;;;;29.68;37.31;96804.22;5002530;28;1336;-57
2021/07/14 02:31:55;;;;;;;;;;;;;;;29.76;37.16;96803.41;5005169;28;1105;-56
2021/07/14 02:34:20;;;;;;;;;;;;;;;29.64;37.36;96800.25;4995191;28;1910;-57
2021/07/14 02:36:45;;;;;;;;;;;;;;;29.89;36.87;96789.63;4994458;28;1177;-57
2021/07/14 02:39:10;;;;;;;;;;;;;;;29.64;37.43;96791.47;5001164;28;1594;-57
2021/07/14 02:41:50;;;;;;;;;;;;;;;29.39;37.86;96793.22;4994362;28;1543;-56
2021/07/14 02:44:15;;;;;;;;;;;;;;;29.93;36.99;96788.28;5003986;28;1650;-57
2021/07/14 02:46:41;;;;;;;;;;;;;;;29.72;37.25;96767.53;4992595;28;1204;-57
2021/07/14 02:49:07;;;;;;;;;;;;;;;30.03;36.54;96757.88;5002024;28;1236;-58
2021/07/14 02:51:33;;;;;;;;;;;;;;;30.14;36.64;96762.03;4991327;28;1846;-57
2021/07/14 02:54:02;;;;;;;;;;;;;;;30.03;36.58;96762.38;5002431;28;1910;-57
2021/07/14 02:56:28;;;;;;;;;;;;;;;29.71;37.36;96768.53;4996705;28;1331;-57
2021/07/14 02:59:00;;;;;;;;;;;;;;;29.85;36.94;96783.78;4994002;28;1394;-57
2021/07/14 03:01:26;;;;;;;;;;;;;;;29.81;36.95;96779.00;4989131;28;1198;-57
2021/07/14 03:03:51;;;;;;;;;;;;;;;29.46;37.74;96795.03;4990787;28;1831;-55
2021/07/14 03:06:17;;;;;;;;;;;;;;;29.84;37.06;96826.50;4993445;28;1190;-57
2021/07/14 03:08:44;;;;;;;;;;;;;;;29.65;37.34;96833.81;4991394;28;1201;-56
2021/07/14 03:11:09;;;;;;;;;;;;;;;29.92;36.96;96831.81;5001354;28;1610;-57
2021/07/14 03:13:36;;;;;;;;;;;;;;;29.54;37.58;96828.78;5004928;28;1886;-57
2021/07/14 03:16:01;;;;;;;;;;;;;;;29.67;37.28;96821.16;4992383;28;1910;-56
2021/07/14 03:18:27;;;;;;;;;;;;;;;29.67;37.58;96823.84;4993413;28;1597;-56
2021/07/14 03:20:53;;;;;;;;;;;;;;;30.06;36.69;96819.69;4988659;28;1297;-57
2021/07/14 03:23:18;;;;;;;;;;;;;;;29.76;37.26;96827.31;5000224;28;1383;-57
2021/07/14 03:25:43;;;;;;;;;;;;;;;29.71;37.01;96824.34;5003596;28;1555;-57
2021/07/14 03:28:08;;;;;;;;;;;;;;;29.55;37.43;96797.75;4990598;28;1313;-58
2021/07/14 03:30:34;;;;;;;;;;;;;;;29.95;36.97;96786.31;4991181;28;1523;-56
2021/07/14 03:32:59;;;;;;;;;;;;;;;29.96;36.73;96786.13;4999278;28;1744;-57
2021/07/14 03:35:24;;;;;;;;;;;;;;;29.97;36.70;96779.81;4991915;28;1918;-57
2021/07/14 03:37:50;;;;;;;;;;;;;;;29.65;37.52;96759.41;4990635;28;1193;-56
2021/07/14 03:40:15;;;;;;;;;;;;;;;29.42;37.74;96758.34;4990632;28;1673;-58
2021/07/14 03:42:41;;;;;;;;;;;;;;;29.43;37.65;96762.66;5001273;28;1630;-58
2021/07/14 03:45:06;;;;;;;;;;;;;;;29.67;37.35;96789.28;5003399;28;1575;-58
2021/07/14 03:47:31;;;;;;;;;;;;;;;29.94;36.84;96801.44;5001693;28;1287;-58
2021/07/14 03:49:57;;;;;;;;;;;;;;;30.06;36.62;96798.41;5002764;28;1004;-57
2021/07/14 03:52:22;;;;;;;;;;;;;;;29.77;37.21;96798.91;4990326;28;1229;-57
2021/07/14 03:54:47;;;;;;;;;;;;;;;29.91;36.87;96808.88;5000359;28;1922;-56
2021/07/14 03:57:13;;;;;;;;;;;;;;;29.89;36.90;96819.69;5001360;28;1542;-57
2021/07/14 03:59:38;;;;;;;;;;;;;;;29.88;36.76;96814.56;4991106;28;1173;-57
2021/07/14 04:02:05;;;;;;;;;;;;;;;29.80;37.07;96820.69;4989725;28;1114;-56
2021/07/14 04:04:30;;;;;;;;;;;;;;;29.67;37.08;96821.16;4990586;28;1443;-56
2021/07/14 04:06:56;;;;;;;;;;;;;;;29.59;37.63;96812.38;5001925;28;1656;-57
2021/07/14 04:09:22;;;;;;;;;;;;;;;29.81;37.13;96802.91;4990775;28;1656;-57
2021/07/14 04:11:51;;;;;;;;;;;;;;;29.46;37.55;96797.69;5002666;28;1454;-57
2021/07/14 04:14:16;;;;;;;;;;;;;;;29.46;37.85;96788.88;5001785;28;1910;-57
2021/07/14 04:16:41;;;;;;;;;;;;;;;29.29;38.16;96808.47;5004890;28;1468;-57
2021/07/14 04:19:07;;;;;;;;;;;;;;;29.49;37.71;96836.41;5007446;28;1582;-57
2021/07/14 04:21:32;;;;;;;;;;;;;;;29.85;36.86;96847.59;5005010;28;1201;-57
2021/07/14 04:23:57;;;;;;;;;;;;;;;30.07;36.67;96854.09;4992761;28;1542;-56
2021/07/14 04:26:22;;;;;;;;;;;;;;;29.61;37.42;96858.19;4997624;28;1297;-57
2021/07/14 04:28:48;;;;;;;;;;;;;;;29.79;37.05;96860.75;5007308;28;1079;-56
2021/07/14 04:31:13;;;;;;;;;;;;;;;29.95;36.88;96860.75;5003253;28;1485;-57
2021/07/14 04:33:39;;;;;;;;;;;;;;;29.73;37.11;96865.69;5003119;28;1585;-58
2021/07/14 04:36:04;;;;;;;;;;;;;;;29.80;36.90;96865.88;5005996;28;2318;-57
2021/07/14 04:38:29;;;;;;;;;;;;;;;29.65;37.18;96855.06;5002419;28;1193;-57
2021/07/14 04:40:55;;;;;;;;;;;;;;;29.41;37.76;96842.53;5004080;28;1571;-56
2021/07/14 04:43:20;;;;;;;;;;;;;;;29.67;37.17;96850.41;5005150;28;1296;-56
2021/07/14 04:45:45;;;;;;;;;;;;;;;29.68;37.21;96838.78;5005188;28;1240;-57
2021/07/14 04:48:10;;;;;;;;;;;;;;;30.05;36.67;96856.09;5003552;28;1650;-56
2021/07/14 04:50:36;;;;;;;;;;;;;;;29.97;36.71;96850.78;5005475;28;1190;-58
2021/07/14 04:53:01;;;;;;;;;;;;;;;29.67;36.96;96837.13;4993414;28;1252;-57
2021/07/14 04:55:26;;;;;;;;;;;;;;;30.26;36.20;96840.50;5004914;28;1977;-58
2021/07/14 04:57:51;;;;;;;;;;;;;;;29.68;37.10;96829.97;5005464;28;1054;-57
2021/07/14 05:00:17;;;;;;;;;;;;;;;29.92;36.56;96829.16;5003491;28;1407;-56
2021/07/14 05:02:45;;;;;;;;;;;;;;;29.84;36.95;96829.16;5007628;28;1734;-55
2021/07/14 05:05:11;;;;;;;;;;;;;;;29.32;37.98;96827.56;5003213;28;1106;-57
2021/07/14 05:07:36;;;;;;;;;;;;;;;29.68;37.08;96824.66;4995032;28;1181;-57
2021/07/14 05:10:02;;;;;;;;;;;;;;;29.85;36.95;96826.31;5004935;28;1564;-55
2021/07/14 05:12:27;;;;;;;;;;;;;;;29.89;36.93;96840.13;5004442;28;1189;-58
2021/07/14 05:14:52;;;;;;;;;;;;;;;30.13;36.41;96834.84;5003220;28;1965;-57
2021/07/14 05:17:17;;;;;;;;;;;;;;;29.72;37.15;96823.34;5005332;28;1661;-58
2021/07/14 05:19:43;;;;;;;;;;;;;;;30.24;36.01;96817.69;5006082;28;1383;-57
2021/07/14 05:22:09;;;;;;;;;;;;;;;29.93;36.71;96804.22;5004996;28;1099;-56
2021/07/14 05:24:34;;;;;;;;;;;;;;;29.99;36.65;96792.94;5002880;28;1586;-57
2021/07/14 05:26:59;;;;;;;;;;;;;;;29.67;37.25;96785.81;5003404;28;1153;-56
2021/07/14 05:29:25;;;;;;;;;;;;;;;29.69;37.12;96792.59;5002215;28;1225;-58
2021/07/14 05:31:50;;;;;;;;;;;;;;;29.46;37.49;96799.53;5004797;28;1693;-57
2021/07/14 05:34:15;;;;;;;;;;;;;;;30.06;36.47;96819.69;5003712;28;1906;-57
2021/07/14 05:36:40;;;;;;;;;;;;;;;30.13;36.51;96831.34;5003084;28;1198;-58
2021/07/14 05:39:06;;;;;;;;;;;;;;;29.83;37.07;96824.84;5004464;28;1670;-56
2021/07/14 05:41:31;;;;;;;;;;;;;;;29.47;37.60;96812.66;5006088;28;1457;-58
2021/07/14 05:43:56;;;;;;;;;;;;;;;29.91;36.97;96814.22;5000124;28;1602;-57
2021/07/14 05:46:21;;;;;;;;;;;;;;;30.14;36.38;96817.88;5004259;28;1241;-57
2021/07/14 05:48:47;;;;;;;;;;;;;;;30.13;36.50;96821.53;5002751;28;1180;-57
2021/07/14 05:51:12;;;;;;;;;;;;;;;30.00;36.67;96829.97;5005864;28;1106;-55
2021/07/14 05:53:37;;;;;;;;;;;;;;;29.64;37.17;96829.47;5001196;28;1607;-56
2021/07/14 05:56:02;;;;;;;;;;;;;;;29.90;36.81;96839.97;5003906;28;1902;-57
2021/07/14 05:58:28;;;;;;;;;;;;;;;29.42;37.70;96843.34;5002463;28;1178;-56
2021/07/14 06:00:53;;;;;;;;;;;;;;;29.72;37.20;96839.28;5005642;28;1572;-57
2021/07/14 06:03:18;;;;;;;;;;;;;;;29.32;37.82;96827.56;5009856;28;1655;-57
2021/07/14 06:05:44;;;;;;;;;;;;;;;29.77;36.99;96825.50;5014116;28;1327;-56
2021/07/14 06:08:09;;;;;;;;;;;;;;;29.56;37.26;96807.38;5007142;28;1163;-56
2021/07/14 06:10:34;;;;;;;;;;;;;;;29.47;37.40;96793.25;5003358;28;1563;-56
2021/07/14 06:12:59;;;;;;;;;;;;;;;29.15;38.22;96788.66;5002947;28;1284;-57
2021/07/14 06:15:26;;;;;;;;;;;;;;;29.17;38.25;96792.00;5000872;28;1906;-56
2021/07/14 06:17:51;;;;;;;;;;;;;;;29.57;37.52;96790.44;5002860;28;1026;-56
2021/07/14 06:20:16;;;;;;;;;;;;;;;29.47;37.53;96775.47;5003183;28;1691;-57
2021/07/14 06:22:41;;;;;;;;;;;;;;;29.78;36.77;96774.81;5002701;28;1574;-56
2021/07/14 06:25:09;;;;;;;;;;;;;;;29.90;36.82;96783.31;5002546;28;1639;-56
2021/07/14 06:27:34;;;;;;;;;;;;;;;29.93;36.55;96782.97;5003426;28;1217;-57
2021/07/14 06:30:00;;;;;;;;;;;;;;;29.60;37.18;96779.47;4999533;28;1805;-56
2021/07/14 06:32:25;;;;;;;;;;;;;;;29.79;36.83;96789.81;5003398;28;1567;-56
2021/07/14 06:34:51;;;;;;;;;;;;;;;29.46;37.39;96803.00;5001790;28;1891;-56
2021/07/14 06:37:16;;;;;;;;;;;;;;;30.14;36.26;96833.84;5011066;28;1223;-55
2021/07/14 06:39:41;;;;;;;;;;;;;;;29.87;36.95;96842.13;5008190;28;1582;-56
2021/07/14 06:42:06;;;;;;;;;;;;;;;29.95;36.75;96848.28;5005160;28;1205;-54
2021/07/14 06:44:36;;;;;;;;;;;;;;;29.73;36.86;96846.28;5015472;28;1439;-57
2021/07/14 06:47:01;;;;;;;;;;;;;;;29.97;36.59;96858.75;5013237;28;1574;-57
2021/07/14 06:49:27;;;;;;;;;;;;;;;29.97;36.81;96859.56;5015584;28;1307;-57
2021/07/14 06:51:52;;;;;;;;;;;;;;;29.41;37.63;96847.00;5013363;28;1434;-57
2021/07/14 06:54:17;;;;;;;;;;;;;;;29.15;38.38;96837.31;5008350;28;1910;-58
2021/07/14 06:56:43;;;;;;;;;;;;;;;29.58;37.38;96822.16;5010334;28;1105;-57
2021/07/14 06:59:09;;;;;;;;;;;;;;;28.82;38.98;96793.00;5008877;28;1324;-57
2021/07/14 07:01:34;;;;;;;;;;;;;;;28.83;38.93;96794.66;5009431;28;1181;-58
2021/07/14 07:03:59;;;;;;;;;;;;;;;29.16;38.07;96832.84;5005884;28;1607;-59
2021/07/14 07:06:25;;;;;;;;;;;;;;;29.43;37.89;96843.19;5010375;28;1181;-58
2021/07/14 07:08:50;;;;;;;;;;;;;;;29.48;37.56;96863.97;5008995;28;1599;-58
2021/07/14 07:11:16;;;;;;;;;;;;;;;29.14;38.09;96866.66;5007977;28;950;-57
2021/07/14 07:13:41;;;;;;;;;;;;;;;29.58;37.33;96858.53;5008245;28;1401;-57
2021/07/14 07:16:06;;;;;;;;;;;;;;;29.30;37.92;96861.41;5003693;28;1992;-58
2021/07/14 07:18:32;;;;;;;;;;;;;;;29.31;38.17;96862.22;5009735;28;1284;-59
2021/07/14 07:20:57;;;;;;;;;;;;;;;29.13;38.13;96865.84;5009215;28;1156;-58
2021/07/14 07:23:22;;;;;;;;;;;;;;;29.29;38.01;96872.19;5009024;28;1253;-58
2021/07/14 07:25:47;;;;;;;;;;;;;;;29.49;37.34;96876.25;4999337;28;1517;-58
2021/07/14 07:28:15;;;;;;;;;;;;;;;29.29;38.16;96874.84;5007682;28;1034;-58
2021/07/14 07:30:41;;;;;;;;;;;;;;;29.29;37.77;96870.38;5009304;28;1205;-58
2021/07/14 07:33:06;;;;;;;;;;;;;;;29.55;37.40;96857.03;5007834;28;1615;-58
2021/07/14 07:35:31;;;;;;;;;;;;;;;29.26;38.00;96860.06;5008849;28;1965;-57
2021/07/14 07:37:56;;;;;;;;;;;;;;;29.32;37.89;96869.25;5008845;28;1240;-58
2021/07/14 07:40:21;;;;;;;;;;;;;;;29.39;37.79;96878.22;5006050;28;1583;-57
2021/07/14 07:42:47;;;;;;;;;;;;;;;29.56;37.29;96876.47;5006327;28;1303;-58
2021/07/14 07:45:12;;;;;;;;;;;;;;;29.28;38.27;96879.34;5008020;28;1225;-57
2021/07/14 07:47:38;;;;;;;;;;;;;;;29.10;38.61;96879.44;5007060;28;1572;-57
2021/07/14 07:50:03;;;;;;;;;;;;;;;29.27;37.90;96888.28;5008664;28;1243;-58
2021/07/14 07:52:28;;;;;;;;;;;;;;;29.47;37.62;96891.53;5009461;28;1370;-57
2021/07/14 07:54:55;;;;;;;;;;;;;;;29.42;37.57;96893.84;5007720;28;1914;-57
2021/07/14 07:57:20;;;;;;;;;;;;;;;29.28;38.12;96903.22;5008308;28;1252;-57
2021/07/14 07:59:45;;;;;;;;;;;;;;;29.56;37.49;96901.22;5007510;28;1252;-58
2021/07/14 08:02:11;;;;;;;;;;;;;;;29.36;37.72;96902.44;5009859;28;1168;-57
2021/07/14 08:04:36;;;;;;;;;;;;;;;29.48;37.59;96894.03;5008241;28;1550;-58
2021/07/14 08:07:01;;;;;;;;;;;;;;;29.27;38.14;96904.22;5007597;28;1264;-58
2021/07/14 08:09:26;;;;;;;;;;;;;;;29.36;37.81;96902.44;5007722;28;1594;-57
2021/07/14 08:11:52;;;;;;;;;;;;;;;29.62;37.15;96895.22;5007984;28;1440;-58
2021/07/14 08:14:17;;;;;;;;;;;;;;;29.51;37.73;96886.75;5009206;28;1910;-57
2021/07/14 08:16:42;;;;;;;;;;;;;;;29.17;38.29;96888.44;5008760;28;1236;-58
2021/07/14 08:19:08;;;;;;;;;;;;;;;29.09;38.46;96893.72;5005750;28;1670;-57
2021/07/14 08:21:33;;;;;;;;;;;;;;;28.79;39.19;96895.00;5006358;28;1157;-59
2021/07/14 08:23:58;;;;;;;;;;;;;;;29.66;37.73;96887.78;5007581;28;1541;-56
2021/07/14 08:26:24;;;;;;;;;;;;;;;29.71;37.37;96883.66;5005381;28;1181;-57
2021/07/14 08:28:50;;;;;;;;;;;;;;;29.82;37.05;96881.66;5003067;28;1271;-56
2021/07/14 08:31:15;;;;;;;;;;;;;;;29.85;37.09;96891.94;5007456;28;1267;-57
2021/07/14 08:33:40;;;;;;;;;;;;;;;29.87;37.04;96897.97;5006007;28;1693;-58
2021/07/14 08:36:05;;;;;;;;;;;;;;;30.05;36.50;96895.16;5007031;28;1903;-58
2021/07/14 08:38:30;;;;;;;;;;;;;;;29.89;36.86;96894.13;5006883;28;1314;-58
2021/07/14 08:40:56;;;;;;;;;;;;;;;29.82;36.97;96894.94;5006093;28;1598;-58
2021/07/14 08:43:21;;;;;;;;;;;;;;;29.93;36.81;96892.78;4999214;28;1390;-59
2021/07/14 08:45:51;;;;;;;;;;;;;;;29.87;37.00;96901.44;5005976;28;1181;-58
2021/07/14 08:48:16;;;;;;;;;;;;;;;29.87;36.81;96897.97;5003943;28;1133;-58
2021/07/14 08:50:44;;;;;;;;;;;;;;;29.88;36.99;96897.78;5005974;28;1670;-57
2021/07/14 08:53:16;;;;;;;;;;;;;;;29.14;38.89;96907.31;5006770;28;1316;-55
2021/07/14 08:55:42;;;;;;;;;;;;;;;29.70;37.66;96899.72;5003270;28;1918;-56
2021/07/14 08:58:07;;;;;;;;;;;;;;;29.68;37.59;96905.22;5004214;28;1240;-57
2021/07/14 09:00:32;;;;;;;;;;;;;;;29.46;38.10;96901.28;4998301;28;1628;-57
2021/07/14 09:02:57;;;;;;;;;;;;;;;29.36;38.28;96907.75;5013698;28;1418;-55
2021/07/14 09:05:22;;;;;;;;;;;;;;;29.63;37.85;96910.19;5001995;28;1592;-57
2021/07/14 09:07:48;;;;;;;;;;;;;;;29.53;37.86;96909.50;5016038;28;1113;-57
2021/07/14 09:10:14;;;;;;;;;;;;;;;29.47;37.92;96912.78;5014384;28;1528;-55
2021/07/14 09:12:42;;;;;;;;;;;;;;;29.85;37.44;96913.22;5014825;28;1366;-57
2021/07/14 09:15:11;;;;;;;;;;;;;;;29.05;38.93;96912.75;5010972;28;1910;-54
2021/07/14 09:17:43;;;;;;;;;;;;;;;28.76;39.55;96910.44;5016844;28;1201;-57
2021/07/14 09:20:08;;;;;;;;;;;;;;;29.18;38.83;96907.84;5014078;28;1142;-55
2021/07/14 09:22:34;;;;;;;;;;;;;;;29.43;38.19;96908.78;5011266;28;1650;-55
2021/07/14 09:24:59;;;;;;;;;;;;;;;29.61;37.69;96906.03;5003041;28;1575;-56
2021/07/14 09:27:30;;;;;;;;;;;;;;;29.71;37.56;96907.56;5000876;28;1126;-56
2021/07/14 09:30:23;;;;;;;;;;;;;;;28.82;39.79;96907.13;5002194;28;1447;-55
2021/07/14 09:32:48;;;;;;;;;;;;;;;29.24;38.87;96898.41;4997169;28;1665;-56
2021/07/14 09:35:29;;;;;;;;;;;;;;;29.89;37.63;96901.28;5001695;28;1974;-55
2021/07/14 09:37:54;;;;;;;;;;;;;;;28.90;39.22;96893.94;4998416;28;1458;-57
2021/07/14 09:40:20;;;;;;;;;;;;;;;28.23;41.05;96896.25;4999708;28;1665;-57
2021/07/14 09:42:51;;;;;;;;;;;;;;;28.19;40.89;96892.22;4997822;28;1355;-57
2021/07/14 09:45:32;;;;;;;;;;;;;;;28.59;40.36;96897.03;4999868;28;1166;-54
2021/07/14 09:47:57;;;;;;;;;;;;;;;28.17;41.53;96891.56;4989308;28;1628;-56
2021/07/14 09:50:39;;;;;;;;;;;;;;;28.05;41.46;96893.63;5001142;28;1216;-57
2021/07/14 09:53:05;;;;;;;;;;;;;;;28.16;41.63;96902.31;5001316;28;1218;-55
2021/07/14 09:55:30;;;;;;;;;;;;;;;28.47;40.77;96900.13;5001142;28;1974;-56
2021/07/14 09:58:08;;;;;;;;;;;;;;;28.41;40.64;96896.25;4990330;28;1035;-55
2021/07/14 10:00:37;;;;;;;;;;;;;;;28.85;40.06;96888.25;5002750;28;1106;-56
2021/07/14 10:03:02;;;;;;;;;;;;;;;28.47;40.95;96892.16;5002569;28;1610;-54
2021/07/14 10:05:27;;;;;;;;;;;;;;;28.33;41.18;96893.53;5002821;28;1508;-55
2021/07/14 10:07:58;;;;;;;;;;;;;;;28.44;41.09;96898.63;4990825;28;1058;-57
2021/07/14 10:10:23;;;;;;;;;;;;;;;30.25;37.10;96884.03;4991096;28;1671;-57
2021/07/14 10:12:50;;;;;;;;;;;;;;;30.11;37.44;96875.91;5000628;28;1450;-58
2021/07/14 10:15:15;;;;;;;;;;;;;;;29.49;38.35;96878.91;5001283;28;1910;-56
2021/07/14 10:17:46;;;;;;;;;;;;;;;29.30;38.78;96881.81;5000149;28;1618;-54
2021/07/14 10:20:21;;;;;;;;;;;;;;;29.39;39.05;96888.84;5002404;28;1497;-56
2021/07/14 10:22:49;;;;;;;;;;;;;;;30.47;36.63;96890.50;4999081;28;1268;-56
2021/07/14 10:25:15;;;;;;;;;;;;;;;29.14;39.32;96894.03;5003703;28;1646;-57
2021/07/14 10:27:41;;;;;;;;;;;;;;;29.01;39.60;96896.31;4990164;28;1237;-54
2021/07/14 10:30:06;;;;;;;;;;;;;;;29.33;38.84;96889.50;4997696;28;1503;-54
2021/07/14 10:32:32;;;;;;;;;;;;;;;28.80;39.88;96887.88;4999639;28;1576;-53
2021/07/14 10:34:57;;;;;;;;;;;;;;;28.50;40.55;96887.34;4990434;28;1918;-56
2021/07/14 10:37:22;;;;;;;;;;;;;;;28.31;40.87;96885.75;4999633;28;1193;-56
2021/07/14 10:39:47;;;;;;;;;;;;;;;28.26;41.00;96889.81;4989487;28;1569;-55
2021/07/14 10:42:12;;;;;;;;;;;;;;;27.86;42.16;96887.63;4990058;28;1488;-57
2021/07/14 10:44:38;;;;;;;;;;;;;;;28.33;41.38;96889.06;5001171;28;1303;-55
2021/07/14 10:47:03;;;;;;;;;;;;;;;29.18;39.56;96900.72;4989753;28;1273;-54
2021/07/14 10:49:28;;;;;;;;;;;;;;;30.43;36.70;96901.66;4991612;28;1656;-56
2021/07/14 10:51:55;;;;;;;;;;;;;;;29.73;37.88;96900.25;4989552;28;1034;-55
2021/07/14 10:54:20;;;;;;;;;;;;;;;28.61;40.73;96900.38;5001865;28;1914;-57
2021/07/14 10:56:45;;;;;;;;;;;;;;;29.14;39.47;96901.19;4989165;28;1221;-57
2021/07/14 10:59:11;;;;;;;;;;;;;;;29.66;38.52;96899.25;4989096;28;1313;-57
2021/07/14 11:01:37;;;;;;;;;;;;;;;28.77;39.92;96897.00;4989199;28;1420;-54
2021/07/14 11:04:03;;;;;;;;;;;;;;;29.06;39.69;96912.59;4999113;28;1986;-57
2021/07/14 11:06:28;;;;;;;;;;;;;;;30.17;37.31;96907.97;5000226;28;1190;-56
2021/07/14 11:08:53;;;;;;;;;;;;;;;30.42;37.00;96910.66;4999997;28;1583;-56
2021/07/14 11:11:19;;;;;;;;;;;;;;;30.49;36.65;96909.81;5000487;28;1435;-57
2021/07/14 11:13:45;;;;;;;;;;;;;;;30.44;36.53;96898.00;5000033;28;1362;-56
2021/07/14 11:16:29;;;;;;;;;;;;;;;30.56;36.52;96896.63;4998615;28;1926;-55
2021/07/14 11:19:02;;;;;;;;;;;;;;;30.09;37.21;96902.63;5000824;28;1662;-57
2021/07/14 11:21:45;;;;;;;;;;;;;;;30.60;36.32;96902.47;5000581;28;1366;-56
2021/07/14 11:24:11;;;;;;;;;;;;;;;30.68;36.05;96905.16;4998418;28;1637;-56
2021/07/14 11:26:36;;;;;;;;;;;;;;;30.69;36.21;96910.31;5001184;28;1592;-56
2021/07/14 11:29:14;;;;;;;;;;;;;;;29.01;39.28;96901.63;4998201;28;1173;-55
2021/07/14 11:31:41;;;;;;;;;;;;;;;28.55;40.44;96906.31;5000178;28;1185;-57
2021/07/14 11:34:25;;;;;;;;;;;;;;;28.06;41.60;96900.59;5001712;28;1618;-57
2021/07/14 11:36:50;;;;;;;;;;;;;;;29.04;40.03;96901.31;5000700;28;1117;-56
2021/07/14 11:39:25;;;;;;;;;;;;;;;30.30;36.96;96887.03;4996730;28;1618;-56
2021/07/14 11:41:51;;;;;;;;;;;;;;;30.93;35.70;96884.63;4996645;28;1604;-56
2021/07/14 11:44:16;;;;;;;;;;;;;;;30.88;35.90;96885.13;4998913;28;1705;-56
2021/07/14 11:46:41;;;;;;;;;;;;;;;30.59;36.63;96891.00;4987236;28;1404;-58
2021/07/14 11:49:07;;;;;;;;;;;;;;;30.85;35.97;96880.16;5005305;28;1646;-57
2021/07/14 11:51:35;;;;;;;;;;;;;;;30.63;36.39;96876.34;5004707;28;1627;-56
2021/07/14 11:54:01;;;;;;;;;;;;;;;30.68;36.11;96878.53;5000109;28;1561;-58
2021/07/14 11:56:26;;;;;;;;;;;;;;;30.74;36.21;96888.50;5001118;28;1910;-56
2021/07/14 11:58:51;;;;;;;;;;;;;;;30.81;36.06;96892.97;4997773;28;1178;-56
2021/07/14 12:01:24;;;;;;;;;;;;;;;30.78;36.04;96895.13;4998612;28;1564;-57
2021/07/14 12:03:58;;;;;;;;;;;;;;;28.46;40.75;96888.66;4997714;28;1656;-57
2021/07/14 12:06:42;;;;;;;;;;;;;;;28.22;41.44;96881.34;5001036;28;1003;-55
2021/07/14 12:09:14;;;;;;;;;;;;;;;27.90;41.89;96871.28;4997202;28;1576;-55
2021/07/14 12:11:49;;;;;;;;;;;;;;;28.15;41.69;96874.97;4999869;28;1192;-56
2021/07/14 12:14:14;;;;;;;;;;;;;;;29.88;38.21;96878.34;4997464;28;1955;-55
2021/07/14 12:16:43;;;;;;;;;;;;;;;30.46;36.99;96878.19;5001118;28;1562;-55
2021/07/14 12:19:08;;;;;;;;;;;;;;;30.66;36.29;96880.53;5000828;28;1276;-54
2021/07/14 12:21:37;;;;;;;;;;;;;;;30.92;35.77;96885.63;4996794;28;1105;-57
2021/07/14 12:24:02;;;;;;;;;;;;;;;30.71;35.95;96879.00;4998212;28;1566;-57
2021/07/14 12:26:27;;;;;;;;;;;;;;;30.52;36.21;96887.34;5000306;28;1204;-56
2021/07/14 12:28:53;;;;;;;;;;;;;;;30.60;36.14;96890.00;4997552;28;1074;-56
2021/07/14 12:31:21;;;;;;;;;;;;;;;28.98;39.57;96878.03;4997906;28;1236;-58
2021/07/14 12:33:55;;;;;;;;;;;;;;;29.69;38.35;96876.81;4999496;28;1674;-58
2021/07/14 12:36:20;;;;;;;;;;;;;;;29.96;37.86;96875.69;5001231;28;1898;-57
2021/07/14 12:38:52;;;;;;;;;;;;;;;28.64;40.49;96886.78;5003636;28;1288;-55
2021/07/14 12:41:17;;;;;;;;;;;;;;;28.27;41.36;96884.34;5003960;28;956;-55
2021/07/14 12:43:43;;;;;;;;;;;;;;;28.11;42.00;96894.81;5000249;28;1406;-55
2021/07/14 12:46:08;;;;;;;;;;;;;;;28.81;40.39;96893.03;5001303;28;1244;-56
2021/07/14 12:48:33;;;;;;;;;;;;;;;30.43;36.94;96896.34;5002894;28;1637;-56
2021/07/14 12:50:58;;;;;;;;;;;;;;;30.66;36.48;96892.03;5003657;28;1150;-57
2021/07/14 12:53:24;;;;;;;;;;;;;;;30.72;36.45;96895.81;4999957;28;1367;-57
2021/07/14 12:55:49;;;;;;;;;;;;;;;29.91;38.16;96899.28;5004238;28;1914;-57
2021/07/14 12:58:16;;;;;;;;;;;;;;;29.77;38.24;96899.91;5000472;28;1142;-57
2021/07/14 13:00:42;;;;;;;;;;;;;;;29.95;38.01;96900.63;5002442;28;1866;-58
2021/07/14 13:03:08;;;;;;;;;;;;;;;29.91;38.05;96897.44;5002214;28;1579;-57